createdAt,value
2023-04-15T00:00:34.675Z,8.99
2023-04-15T00:02:39.673Z,8.97
2023-04-15T00:04:50.214Z,8.94
2023-04-15T00:06:56.060Z,8.99
2023-04-15T00:09:01.441Z,8.95
2023-04-15T00:11:06.705Z,8.94
2023-04-15T00:13:12.158Z,8.98
2023-04-15T00:15:19.553Z,8.94
2023-04-15T00:17:24.865Z,8.94
2023-04-15T00:19:30.608Z,8.91
2023-04-15T00:21:38.304Z,8.94
2023-04-15T00:23:47.248Z,8.89
2023-04-15T00:25:55.594Z,8.88
2023-04-15T00:28:01.379Z,8.81
2023-04-15T00:30:07.401Z,8.80
2023-04-15T00:32:12.381Z,8.92
2023-04-15T00:34:18.916Z,8.88
2023-04-15T00:36:26.752Z,8.88
2023-04-15T00:38:35.359Z,8.90
2023-04-15T00:40:41.630Z,8.95
2023-04-15T00:42:46.576Z,8.94
2023-04-15T00:44:52.509Z,8.95
2023-04-15T00:46:57.517Z,8.83
2023-04-15T00:49:03.119Z,8.90
2023-04-15T00:51:08.901Z,8.83
2023-04-15T00:53:11.202Z,8.86
2023-04-15T00:55:20.134Z,8.84
2023-04-15T00:57:26.133Z,8.77
2023-04-15T00:59:32.367Z,8.70
2023-04-15T01:01:38.845Z,8.66
2023-04-15T01:03:43.994Z,8.62
2023-04-15T01:05:49.457Z,8.59
2023-04-15T01:07:54.637Z,8.63
2023-04-15T01:09:59.895Z,8.60
2023-04-15T01:12:08.801Z,8.52
2023-04-15T01:14:14.238Z,8.48
2023-04-15T01:16:19.910Z,8.45
2023-04-15T01:18:25.312Z,8.42
2023-04-15T01:20:30.960Z,8.41
2023-04-15T01:22:38.166Z,8.33
2023-04-15T01:24:43.490Z,8.28
2023-04-15T01:26:53.521Z,8.30
2023-04-15T01:28:58.845Z,8.22
2023-04-15T01:31:10.931Z,8.25
2023-04-15T01:33:16.349Z,8.28
2023-04-15T01:35:24.427Z,8.26
2023-04-15T01:37:29.530Z,8.24
2023-04-15T01:39:35.386Z,8.22
2023-04-15T01:41:42.613Z,8.22
2023-04-15T01:43:50.228Z,8.24
2023-04-15T01:45:56.051Z,8.20
2023-04-15T01:48:01.128Z,8.22
2023-04-15T01:50:07.803Z,8.23
2023-04-15T01:52:12.784Z,8.21
2023-04-15T01:54:20.886Z,8.23
2023-04-15T01:56:26.907Z,8.16
2023-04-15T01:58:31.871Z,8.11
2023-04-15T02:00:39.565Z,8.12
2023-04-15T02:02:45.126Z,8.08
2023-04-15T02:04:50.632Z,8.05
2023-04-15T02:06:55.896Z,8.01
2023-04-15T02:09:01.694Z,8.04
2023-04-15T02:11:07.182Z,8.00
2023-04-15T02:13:12.431Z,7.96
2023-04-15T02:15:20.440Z,7.97
2023-04-15T02:17:28.365Z,7.93
2023-04-15T02:19:33.440Z,8.00
2023-04-15T02:21:40.112Z,7.97
2023-04-15T02:23:45.172Z,7.94
2023-04-15T02:25:53.346Z,8.00
2023-04-15T02:28:00.915Z,7.94
2023-04-15T02:30:06.022Z,7.89
2023-04-15T02:32:11.995Z,7.87
2023-04-15T02:34:19.692Z,7.90
2023-04-15T02:36:24.776Z,7.91
2023-04-15T02:38:32.830Z,7.88
2023-04-15T02:40:40.103Z,7.82
2023-04-15T02:42:45.814Z,7.75
2023-04-15T02:44:54.420Z,7.79
2023-04-15T02:46:59.374Z,7.75
2023-04-15T02:49:04.389Z,7.76
2023-04-15T02:51:23.557Z,7.76
2023-04-15T02:53:31.682Z,7.72
2023-04-15T02:55:36.603Z,7.66
2023-04-15T02:57:41.924Z,7.60
2023-04-15T02:59:47.309Z,7.59
2023-04-15T03:01:52.463Z,7.55
2023-04-15T03:03:57.484Z,7.51
2023-04-15T03:06:02.572Z,7.48
2023-04-15T03:08:10.456Z,7.44
2023-04-15T03:10:15.777Z,7.39
2023-04-15T03:12:20.799Z,7.35
2023-04-15T03:14:26.049Z,7.30
2023-04-15T03:16:30.960Z,7.25
2023-04-15T03:18:35.873Z,7.21
2023-04-15T03:20:43.294Z,7.13
2023-04-15T03:22:48.200Z,7.01
2023-04-15T03:24:55.762Z,6.94
2023-04-15T03:27:02.053Z,6.95
2023-04-15T03:29:07.343Z,6.87
2023-04-15T03:31:12.992Z,6.81
2023-04-15T03:33:19.692Z,6.75
2023-04-15T03:35:24.678Z,6.72
2023-04-15T03:37:29.437Z,6.61
2023-04-15T03:39:34.242Z,6.51
2023-04-15T03:41:42.501Z,6.49
2023-04-15T03:43:49.740Z,6.39
2023-04-15T03:45:54.707Z,6.34
2023-04-15T03:48:15.567Z,6.26
2023-04-15T03:50:24.894Z,6.25
2023-04-15T03:52:30.421Z,6.21
2023-04-15T03:54:35.373Z,6.22
2023-04-15T03:56:43.024Z,6.20
2023-04-15T03:58:50.468Z,6.25
2023-04-15T04:00:55.892Z,6.24
2023-04-15T04:03:01.801Z,6.20
2023-04-15T04:05:07.567Z,6.18
2023-04-15T04:07:19.114Z,6.20
2023-04-15T04:09:24.438Z,6.14
2023-04-15T04:11:29.310Z,6.11
2023-04-15T04:13:36.944Z,6.05
2023-04-15T04:15:42.527Z,6.00
2023-04-15T04:17:48.230Z,6.01
2023-04-15T04:19:54.042Z,5.94
2023-04-15T04:21:59.026Z,5.90
2023-04-15T04:24:03.912Z,5.88
2023-04-15T04:26:09.293Z,5.86
2023-04-15T04:28:14.791Z,5.87
2023-04-15T04:30:23.748Z,5.93
2023-04-15T04:32:30.555Z,5.87
2023-04-15T04:34:35.601Z,5.89
2023-04-15T04:36:40.793Z,5.85
2023-04-15T04:38:45.730Z,5.86
2023-04-15T04:40:50.798Z,5.89
2023-04-15T04:42:55.718Z,5.87
2023-04-15T04:45:00.674Z,5.89
2023-04-15T04:47:08.200Z,5.85
2023-04-15T04:49:13.402Z,5.88
2023-04-15T04:51:19.527Z,5.91
2023-04-15T04:53:24.641Z,5.93
2023-04-15T04:55:29.878Z,5.93
2023-04-15T04:57:36.234Z,5.99
2023-04-15T04:59:41.166Z,5.98
2023-04-15T05:01:49.392Z,5.96
2023-04-15T05:03:57.865Z,5.94
2023-04-15T05:06:03.362Z,5.91
2023-04-15T05:08:08.890Z,5.93
2023-04-15T05:10:16.421Z,5.92
2023-04-15T05:12:23.975Z,5.95
2023-04-15T05:14:29.356Z,5.93
2023-04-15T05:16:34.246Z,5.91
2023-04-15T05:18:39.174Z,5.89
2023-04-15T05:20:49.184Z,5.90
2023-04-15T05:22:54.123Z,5.92
2023-04-15T05:24:59.171Z,5.96
2023-04-15T05:27:04.419Z,5.97
2023-04-15T05:29:09.357Z,6.01
2023-04-15T05:31:14.401Z,6.08
2023-04-15T05:33:19.676Z,6.17
2023-04-15T05:35:24.765Z,6.28
2023-04-15T05:37:32.366Z,6.38
2023-04-15T05:39:40.663Z,6.45
2023-04-15T05:41:45.708Z,6.60
2023-04-15T05:43:52.252Z,6.76
2023-04-15T05:45:57.269Z,6.89
2023-04-15T05:48:02.460Z,6.99
2023-04-15T05:50:08.547Z,7.09
2023-04-15T05:52:13.586Z,7.20
2023-04-15T05:54:28.118Z,7.36
2023-04-15T05:56:33.045Z,7.47
2023-04-15T05:58:38.103Z,7.62
2023-04-15T06:00:43.159Z,7.69
2023-04-15T06:02:50.283Z,7.78
2023-04-15T06:04:55.660Z,7.95
2023-04-15T06:07:00.756Z,8.06
2023-04-15T06:09:05.774Z,7.99
2023-04-15T06:11:13.352Z,8.13
2023-04-15T06:13:20.446Z,8.26
2023-04-15T06:15:25.793Z,8.32
2023-04-15T06:17:31.016Z,8.50
2023-04-15T06:19:36.631Z,8.62
2023-04-15T06:21:42.190Z,8.61
2023-04-15T06:23:51.259Z,8.79
2023-04-15T06:25:56.226Z,8.78
2023-04-15T06:28:03.776Z,8.93
2023-04-15T06:30:13.082Z,9.16
2023-04-15T06:32:21.567Z,9.13
2023-04-15T06:34:26.606Z,9.11
2023-04-15T06:36:32.714Z,9.31
2023-04-15T06:38:39.639Z,9.41
2023-04-15T06:40:44.870Z,9.40
2023-04-15T06:42:49.963Z,9.49
2023-04-15T06:44:58.132Z,9.59
2023-04-15T06:47:03.236Z,9.61
2023-04-15T06:49:08.395Z,9.92
2023-04-15T06:51:13.256Z,10.00
2023-04-15T06:53:21.028Z,10.02
2023-04-15T06:55:26.268Z,10.24
2023-04-15T06:57:33.766Z,10.29
2023-04-15T06:59:40.149Z,10.44
2023-04-15T07:01:48.949Z,10.64
2023-04-15T07:03:54.658Z,10.94
2023-04-15T07:06:00.046Z,10.87
2023-04-15T07:08:05.069Z,10.89
2023-04-15T07:10:12.194Z,10.86
2023-04-15T07:12:19.298Z,11.10
2023-04-15T07:17:22.490Z,11.19
2023-04-15T07:19:27.653Z,11.42
2023-04-15T07:21:32.668Z,11.24
2023-04-15T07:23:37.918Z,11.37
2023-04-15T07:25:42.985Z,11.36
2023-04-15T07:27:48.464Z,11.41
2023-04-15T07:29:53.931Z,11.91
2023-04-15T07:31:59.368Z,11.64
2023-04-15T07:34:07.226Z,11.76
2023-04-15T07:36:12.609Z,11.94
2023-04-15T07:38:20.824Z,11.93
2023-04-15T07:40:26.000Z,12.04
2023-04-15T07:42:31.862Z,12.41
2023-04-15T07:44:37.598Z,12.23
2023-04-15T07:46:42.525Z,12.53
2023-04-15T07:48:47.852Z,12.72
2023-04-15T07:50:55.549Z,12.91
2023-04-15T07:53:01.004Z,12.94
2023-04-15T07:55:09.962Z,12.88
2023-04-15T07:57:14.805Z,13.08
2023-04-15T07:59:24.627Z,12.97
2023-04-15T08:01:29.659Z,13.02
2023-04-15T08:03:35.094Z,13.10
2023-04-15T08:05:41.295Z,13.13
2023-04-15T08:07:51.479Z,13.35
2023-04-15T08:09:56.465Z,13.31
2023-04-15T08:12:01.530Z,13.23
2023-04-15T08:14:07.142Z,13.54
2023-04-15T08:16:24.979Z,13.46
2023-04-15T08:18:29.993Z,13.48
2023-04-15T08:20:34.998Z,13.85
2023-04-15T08:22:40.042Z,13.78
2023-04-15T08:24:48.237Z,14.03
2023-04-15T08:26:53.265Z,13.93
2023-04-15T08:28:58.465Z,13.63
2023-04-15T08:31:03.904Z,13.71
2023-04-15T08:33:09.539Z,13.77
2023-04-15T08:35:14.754Z,13.79
2023-04-15T08:37:19.652Z,13.73
2023-04-15T08:39:24.647Z,13.90
2023-04-15T08:41:35.045Z,14.22
2023-04-15T08:43:45.488Z,14.28
2023-04-15T08:45:52.165Z,14.32
2023-04-15T08:47:59.913Z,13.70
2023-04-15T08:50:06.727Z,13.96
2023-04-15T08:52:13.517Z,13.90
2023-04-15T08:54:21.070Z,14.04
2023-04-15T08:56:31.357Z,14.18
2023-04-15T08:58:40.634Z,14.42
2023-04-15T09:00:46.080Z,14.39
2023-04-15T09:02:54.223Z,14.49
2023-04-15T09:04:59.408Z,14.27
2023-04-15T09:07:04.977Z,14.05
2023-04-15T09:09:10.814Z,14.11
2023-04-15T09:11:15.837Z,14.48
2023-04-15T09:13:26.774Z,14.32
2023-04-15T09:15:36.662Z,14.54
2023-04-15T09:17:46.569Z,15.06
2023-04-15T09:20:11.692Z,14.85
2023-04-15T09:22:21.824Z,14.97
2023-04-15T09:24:27.284Z,15.20
2023-04-15T09:26:41.031Z,15.15
2023-04-15T09:28:46.026Z,15.57
2023-04-15T09:30:56.812Z,15.68
2023-04-15T09:33:11.285Z,15.65
2023-04-15T09:35:19.240Z,15.48
2023-04-15T09:37:38.502Z,15.12
2023-04-15T09:39:52.180Z,14.97
2023-04-15T09:42:10.199Z,14.91
2023-04-15T09:44:25.855Z,14.99
2023-04-15T09:46:49.855Z,14.98
2023-04-15T09:49:12.137Z,15.12
2023-04-15T09:51:18.948Z,14.84
2023-04-15T09:53:26.245Z,14.78
2023-04-15T09:55:31.188Z,14.83
2023-04-15T09:57:39.402Z,15.20
2023-04-15T09:59:45.126Z,15.21
2023-04-15T10:01:52.660Z,15.17
2023-04-15T10:04:00.551Z,15.31
2023-04-15T10:06:06.655Z,15.23
2023-04-15T10:08:12.257Z,15.06
2023-04-15T10:10:19.804Z,14.63
2023-04-15T10:12:26.388Z,14.84
2023-04-15T10:14:34.982Z,15.40
2023-04-15T10:16:46.290Z,15.80
2023-04-15T10:18:57.881Z,15.80
2023-04-15T10:21:04.314Z,15.44
2023-04-15T10:23:12.827Z,15.27
2023-04-15T10:25:19.597Z,15.32
2023-04-15T10:27:25.144Z,15.76
2023-04-15T10:29:30.219Z,15.42
2023-04-15T10:31:38.596Z,15.95
2023-04-15T10:33:45.661Z,16.01
2023-04-15T10:35:54.813Z,15.96
2023-04-15T10:38:00.155Z,15.82
2023-04-15T10:40:25.085Z,16.45
2023-04-15T10:42:37.961Z,16.53
2023-04-15T10:44:46.272Z,16.36
2023-04-15T10:46:52.135Z,16.71
2023-04-15T10:48:57.924Z,16.55
2023-04-15T10:51:07.092Z,16.44
2023-04-15T10:53:14.305Z,16.19
2023-04-15T10:55:24.650Z,16.34
2023-04-15T10:57:38.377Z,16.87
2023-04-15T11:00:04.893Z,16.63
2023-04-15T11:02:10.904Z,16.33
2023-04-15T11:04:21.498Z,16.63
2023-04-15T11:06:49.509Z,17.09
2023-04-15T11:09:02.835Z,17.01
2023-04-15T11:11:11.258Z,16.58
2023-04-15T11:13:22.064Z,16.40
2023-04-15T11:15:33.209Z,17.01
2023-04-15T11:17:38.619Z,17.14
2023-04-15T11:19:43.959Z,17.16
2023-04-15T11:21:57.794Z,16.91
2023-04-15T11:24:07.001Z,17.18
2023-04-15T11:26:14.079Z,16.84
2023-04-15T11:28:20.367Z,16.91
2023-04-15T11:30:29.702Z,17.48
2023-04-15T11:32:34.622Z,17.88
2023-04-15T11:34:41.185Z,17.74
2023-04-15T11:36:49.342Z,17.10
2023-04-15T11:38:58.135Z,16.02
2023-04-15T11:41:03.060Z,16.86
2023-04-15T11:43:09.524Z,16.37
2023-04-15T11:45:16.186Z,16.34
2023-04-15T11:47:27.441Z,16.87
2023-04-15T11:49:35.361Z,17.40
2023-04-15T11:51:42.882Z,17.27
2023-04-15T11:53:49.514Z,17.48
2023-04-15T11:55:57.568Z,17.75
2023-04-15T11:58:15.095Z,16.84
2023-04-15T12:00:25.363Z,17.23
2023-04-15T12:02:34.916Z,16.66
2023-04-15T12:04:40.007Z,17.00
2023-04-15T12:06:45.201Z,16.55
2023-04-15T12:09:08.485Z,16.77
2023-04-15T12:11:19.021Z,16.50
2023-04-15T12:13:24.403Z,16.28
2023-04-15T12:15:29.428Z,16.50
2023-04-15T12:17:50.898Z,17.07
2023-04-15T12:19:59.827Z,16.85
2023-04-15T12:22:06.786Z,17.16
2023-04-15T12:24:12.989Z,17.17
2023-04-15T12:26:24.005Z,16.86
2023-04-15T12:28:33.732Z,16.95
2023-04-15T12:30:39.273Z,17.16
2023-04-15T12:32:44.300Z,16.66
2023-04-15T12:34:56.262Z,17.01
2023-04-15T12:37:04.474Z,17.51
2023-04-15T12:39:09.634Z,17.29
2023-04-15T12:41:14.566Z,17.10
2023-04-15T12:43:26.574Z,16.41
2023-04-15T12:45:31.967Z,16.45
2023-04-15T12:47:36.853Z,16.65
2023-04-15T12:49:45.342Z,16.34
2023-04-15T12:51:54.034Z,16.62
2023-04-15T12:53:59.119Z,16.41
2023-04-15T12:56:04.014Z,16.39
2023-04-15T12:58:09.053Z,16.06
2023-04-15T13:00:20.792Z,14.73
2023-04-15T13:02:28.867Z,14.90
2023-04-15T13:04:34.138Z,14.05
2023-04-15T13:06:39.425Z,13.51
2023-04-15T13:08:57.393Z,13.68
2023-04-15T13:11:03.102Z,14.13
2023-04-15T13:13:10.193Z,14.60
2023-04-15T13:15:21.046Z,14.40
2023-04-15T13:17:26.026Z,13.90
2023-04-15T13:19:31.122Z,14.48
2023-04-15T13:21:36.972Z,14.80
2023-04-15T13:23:43.227Z,14.83
2023-04-15T13:25:49.293Z,15.30
2023-04-15T13:27:54.226Z,15.73
2023-04-15T13:29:59.062Z,15.46
2023-04-15T13:32:06.653Z,15.36
2023-04-15T13:34:11.894Z,15.91
2023-04-15T13:36:19.796Z,15.54
2023-04-15T13:38:24.740Z,14.90
2023-04-15T13:40:30.048Z,15.13
2023-04-15T13:42:35.107Z,14.82
2023-04-15T13:44:41.148Z,15.09
2023-04-15T13:46:46.149Z,15.40
2023-04-15T13:48:53.675Z,14.90
2023-04-15T13:50:58.823Z,14.97
2023-04-15T13:53:08.941Z,14.58
2023-04-15T13:55:20.315Z,14.51
2023-04-15T13:57:26.151Z,14.67
2023-04-15T13:59:31.181Z,15.04
2023-04-15T14:01:36.738Z,15.04
2023-04-15T14:03:41.935Z,14.37
2023-04-15T14:05:53.693Z,14.52
2023-04-15T14:07:58.795Z,15.00
2023-04-15T14:10:04.403Z,14.82
2023-04-15T14:12:10.500Z,15.07
2023-04-15T14:14:16.337Z,15.52
2023-04-15T14:16:25.730Z,14.62
2023-04-15T14:18:30.699Z,15.11
2023-04-15T14:20:35.842Z,14.36
2023-04-15T14:22:43.410Z,14.14
2023-04-15T14:24:53.482Z,14.56
2023-04-15T14:26:58.556Z,14.79
2023-04-15T14:29:03.745Z,15.05
2023-04-15T14:31:09.043Z,14.91
2023-04-15T14:33:14.233Z,14.42
2023-04-15T14:35:21.627Z,13.96
2023-04-15T14:37:26.644Z,14.52
2023-04-15T14:39:33.996Z,14.80
2023-04-15T14:41:38.901Z,13.83
2023-04-15T14:43:43.655Z,14.30
2023-04-15T14:45:52.159Z,13.55
2023-04-15T14:47:57.019Z,14.28
2023-04-15T14:50:02.701Z,14.40
2023-04-15T14:52:07.680Z,13.69
2023-04-15T14:54:12.901Z,13.79
2023-04-15T14:56:22.404Z,13.68
2023-04-15T14:58:28.135Z,14.32
2023-04-15T15:00:33.429Z,13.94
2023-04-15T15:02:40.353Z,13.53
2023-04-15T15:04:45.507Z,13.69
2023-04-15T15:06:53.375Z,13.34
2023-04-15T15:08:58.271Z,13.17
2023-04-15T15:11:03.309Z,12.90
2023-04-15T15:13:12.156Z,13.02
2023-04-15T15:17:30.161Z,13.71
2023-04-15T15:19:35.043Z,13.29
2023-04-15T15:21:40.592Z,13.00
2023-04-15T15:23:45.526Z,12.88
2023-04-15T15:25:50.519Z,13.50
2023-04-15T15:27:55.852Z,13.72
2023-04-15T15:30:03.544Z,13.32
2023-04-15T15:32:08.926Z,12.98
2023-04-15T15:34:13.823Z,13.07
2023-04-15T15:36:19.473Z,13.04
2023-04-15T15:38:26.499Z,13.51
2023-04-15T15:40:31.493Z,13.40
2023-04-15T15:42:41.762Z,13.53
2023-04-15T15:44:54.517Z,13.25
2023-04-15T15:47:13.536Z,13.33
2023-04-15T15:49:35.426Z,13.30
2023-04-15T15:51:51.196Z,12.94
2023-04-15T15:54:08.414Z,13.44
2023-04-15T15:56:14.504Z,12.91
2023-04-15T15:58:56.797Z,11.89
2023-04-15T16:01:41.712Z,11.91
2023-04-15T16:05:58.889Z,11.64
2023-04-15T16:08:26.500Z,11.39
2023-04-15T16:11:00.663Z,11.18
2023-04-15T16:13:11.326Z,11.06
2023-04-15T16:15:20.842Z,11.02
2023-04-15T16:17:57.494Z,11.01
2023-04-15T16:20:15.523Z,10.92
2023-04-15T16:22:25.979Z,10.66
2023-04-15T16:24:49.011Z,10.73
2023-04-15T16:27:01.822Z,10.54
2023-04-15T16:29:07.456Z,10.43
2023-04-15T16:31:14.191Z,10.70
2023-04-15T16:33:21.096Z,10.84
2023-04-15T16:35:26.416Z,10.83
2023-04-15T16:37:36.575Z,10.72
2023-04-15T16:39:43.532Z,10.52
2023-04-15T16:41:48.518Z,10.55
2023-04-15T16:43:53.486Z,10.33
2023-04-15T16:46:02.221Z,10.09
2023-04-15T16:48:18.093Z,10.06
2023-04-15T16:50:23.442Z,9.97
2023-04-15T16:52:39.428Z,9.98
2023-04-15T16:55:04.208Z,9.89
2023-04-15T16:57:20.972Z,9.95
2023-04-15T16:59:39.210Z,9.84
2023-04-15T17:01:51.220Z,9.80
2023-04-15T17:03:57.296Z,9.85
2023-04-15T17:06:03.888Z,9.64
2023-04-15T17:08:12.644Z,9.33
2023-04-15T17:10:20.815Z,9.29
2023-04-15T17:12:30.556Z,9.27
2023-04-15T17:14:41.880Z,9.25
2023-04-15T17:16:49.997Z,9.43
2023-04-15T17:19:07.683Z,9.18
2023-04-15T17:21:22.643Z,8.89
2023-04-15T17:23:31.246Z,8.76
2023-04-15T17:25:42.236Z,9.05
2023-04-15T17:27:49.914Z,9.00
2023-04-15T17:29:57.647Z,8.93
2023-04-15T17:32:34.913Z,8.83
2023-04-15T17:34:49.696Z,8.71
2023-04-15T17:37:00.017Z,8.78
2023-04-15T17:39:27.203Z,8.71
2023-04-15T17:41:40.047Z,8.65
2023-04-15T17:43:50.178Z,8.68
2023-04-15T17:46:01.252Z,8.45
2023-04-15T17:48:28.355Z,8.41
2023-04-15T17:50:40.590Z,8.42
2023-04-15T17:53:01.301Z,8.30
2023-04-15T17:55:22.301Z,8.23
2023-04-15T17:57:38.479Z,8.31
2023-04-15T17:59:50.557Z,8.22
2023-04-15T18:02:04.211Z,8.19
2023-04-15T18:04:09.791Z,8.14
2023-04-15T18:06:17.873Z,8.29
2023-04-15T18:08:24.245Z,8.43
2023-04-15T18:10:32.081Z,8.48
2023-04-15T18:12:37.050Z,8.51
2023-04-15T18:14:41.936Z,8.37
2023-04-15T18:16:48.572Z,8.34
2023-04-15T18:18:53.424Z,8.47
2023-04-15T18:20:58.286Z,8.46
2023-04-15T18:23:03.229Z,8.53
2023-04-15T18:25:09.855Z,8.46
2023-04-15T18:27:19.817Z,8.44
2023-04-15T18:29:25.856Z,8.36
2023-04-15T18:31:32.125Z,8.47
2023-04-15T18:33:40.176Z,8.38
2023-04-15T18:35:46.439Z,8.35
2023-04-15T18:37:56.832Z,8.47
2023-04-15T18:40:02.358Z,8.54
2023-04-15T18:42:07.416Z,8.53
2023-04-15T18:44:14.975Z,8.28
2023-04-15T18:46:20.093Z,8.37
2023-04-15T18:48:28.249Z,8.20
2023-04-15T18:50:33.158Z,8.23
2023-04-15T18:52:38.083Z,8.19
2023-04-15T18:54:43.236Z,8.11
2023-04-15T18:56:50.327Z,8.15
2023-04-15T18:59:19.365Z,8.09
2023-04-15T19:01:23.301Z,8.21
2023-04-15T19:03:31.995Z,7.98
2023-04-15T19:05:37.049Z,7.89
2023-04-15T19:07:42.007Z,7.71
2023-04-15T19:09:47.593Z,7.73
2023-04-15T19:11:52.975Z,7.79
2023-04-15T19:13:57.900Z,7.63
2023-04-15T19:16:06.148Z,7.52
2023-04-15T19:18:13.820Z,7.52
2023-04-15T19:20:21.781Z,7.52
2023-04-15T19:22:26.793Z,7.53
2023-04-15T19:24:33.171Z,7.55
2023-04-15T19:26:39.750Z,7.57
2023-04-15T19:28:44.862Z,7.45
2023-04-15T19:30:49.936Z,7.56
2023-04-15T19:32:55.092Z,7.50
2023-04-15T19:35:02.787Z,7.55
2023-04-15T19:37:07.903Z,7.54
2023-04-15T19:39:13.851Z,7.57
2023-04-15T19:41:20.296Z,7.55
2023-04-15T19:43:28.370Z,7.55
2023-04-15T19:45:36.571Z,7.44
2023-04-15T19:47:41.864Z,7.44
2023-04-15T19:49:47.489Z,7.40
2023-04-15T19:51:59.994Z,7.40
2023-04-15T19:54:05.389Z,7.42
2023-04-15T19:56:11.098Z,7.39
2023-04-15T19:58:19.904Z,7.40
2023-04-15T20:00:25.758Z,7.27
2023-04-15T20:02:32.635Z,7.32
2023-04-15T20:04:38.167Z,7.34
2023-04-15T20:06:43.191Z,7.23
2023-04-15T20:08:53.711Z,7.24
2023-04-15T20:11:01.539Z,7.32
2023-04-15T20:13:06.457Z,7.37
2023-04-15T20:15:12.432Z,7.39
2023-04-15T20:17:20.591Z,7.38
2023-04-15T20:19:27.454Z,7.46
2023-04-15T20:21:32.526Z,7.49
2023-04-15T20:23:38.511Z,7.46
2023-04-15T20:25:48.014Z,7.53
2023-04-15T20:27:53.238Z,7.57
2023-04-15T20:29:58.218Z,7.52
2023-04-15T20:32:03.147Z,7.51
2023-04-15T20:34:10.624Z,7.48
2023-04-15T20:36:17.355Z,7.47
2023-04-15T20:38:24.298Z,7.57
2023-04-15T20:40:29.295Z,7.55
2023-04-15T20:42:38.244Z,7.62
2023-04-15T20:44:43.388Z,7.67
2023-04-15T20:46:49.709Z,7.68
2023-04-15T20:48:54.582Z,7.61
2023-04-15T20:51:00.656Z,7.63
2023-04-15T20:53:06.026Z,7.64
2023-04-15T20:55:14.174Z,7.67
2023-04-15T20:57:24.753Z,7.68
2023-04-15T20:59:33.110Z,7.62
2023-04-15T21:01:38.081Z,7.70
2023-04-15T21:03:43.078Z,7.66
2023-04-15T21:05:50.694Z,7.66
2023-04-15T21:07:56.359Z,7.62
2023-04-15T21:10:02.790Z,7.57
2023-04-15T21:12:10.305Z,7.57
2023-04-15T21:14:15.557Z,7.62
2023-04-15T21:16:23.125Z,7.54
2023-04-15T21:18:31.495Z,7.55
2023-04-15T21:20:36.672Z,7.59
2023-04-15T21:22:41.616Z,7.68
2023-04-15T21:24:50.704Z,7.69
2023-04-15T21:26:57.944Z,7.62
2023-04-15T21:29:03.297Z,7.61
2023-04-15T21:31:09.034Z,7.62
2023-04-15T21:33:52.259Z,7.64
2023-04-15T21:35:57.442Z,7.59
2023-04-15T21:38:02.290Z,7.62
2023-04-15T21:40:08.385Z,7.61
2023-04-15T21:42:13.312Z,7.63
2023-04-15T21:44:20.378Z,7.65
2023-04-15T21:46:35.578Z,7.72
2023-04-15T21:48:47.561Z,7.74
2023-04-15T21:50:53.184Z,7.71
2023-04-15T21:53:00.141Z,7.81
2023-04-15T21:55:05.391Z,7.81
2023-04-15T21:57:10.787Z,7.74
2023-04-15T21:59:20.446Z,7.72
2023-04-15T22:01:32.177Z,7.68
2023-04-15T22:03:38.257Z,7.69
2023-04-15T22:05:50.051Z,7.70
2023-04-15T22:07:58.394Z,7.67
2023-04-15T22:10:05.353Z,7.70
2023-04-15T22:12:10.663Z,7.70
2023-04-15T22:14:19.312Z,7.80
2023-04-15T22:16:26.745Z,7.80
2023-04-15T22:18:34.395Z,7.82
2023-04-15T22:20:47.470Z,7.85
2023-04-15T22:22:54.841Z,7.84
2023-04-15T22:25:03.500Z,7.81
2023-04-15T22:27:09.067Z,7.84
2023-04-15T22:29:14.708Z,7.78
2023-04-15T22:31:22.323Z,7.73
2023-04-15T22:33:28.092Z,7.76
2023-04-15T22:35:34.574Z,7.82
2023-04-15T22:37:42.467Z,7.80
2023-04-15T22:39:54.576Z,7.78
2023-04-15T22:42:01.490Z,7.79
2023-04-15T22:44:06.620Z,7.81
2023-04-15T22:46:11.985Z,7.79
2023-04-15T22:48:17.672Z,7.81
2023-04-15T22:50:23.159Z,7.87
2023-04-15T22:52:31.019Z,7.88
2023-04-15T22:54:42.065Z,7.81
2023-04-15T22:56:47.214Z,7.88
2023-04-15T22:58:53.077Z,7.88
2023-04-15T23:00:59.322Z,7.89
2023-04-15T23:03:05.449Z,7.96
2023-04-15T23:05:13.601Z,7.99
2023-04-15T23:07:21.304Z,7.93
2023-04-15T23:09:26.539Z,7.97
2023-04-15T23:11:34.234Z,8.00
2023-04-15T23:13:39.555Z,8.00
2023-04-15T23:15:44.697Z,8.02
2023-04-15T23:17:49.760Z,7.97
2023-04-15T23:19:54.858Z,8.07
2023-04-15T23:22:01.483Z,8.08
2023-04-15T23:24:07.344Z,8.07
2023-04-15T23:26:12.653Z,8.10
2023-04-15T23:28:27.207Z,7.97
2023-04-15T23:30:38.971Z,8.00
2023-04-15T23:32:45.754Z,7.96
2023-04-15T23:34:57.517Z,7.92
2023-04-15T23:37:04.340Z,7.97
2023-04-15T23:39:11.646Z,8.00
2023-04-15T23:41:28.087Z,7.94
2023-04-15T23:43:36.927Z,7.97
2023-04-15T23:45:44.207Z,7.88
2023-04-15T23:47:58.285Z,7.95
2023-04-15T23:50:03.785Z,7.96
2023-04-15T23:52:09.266Z,7.91
2023-04-15T23:54:14.253Z,7.96
2023-04-15T23:56:22.769Z,7.99
2023-04-15T23:58:28.974Z,7.95
